sensor_id;sensor_type;location;lat;lon;timestamp;P1;durP1;ratioP1;P2;durP2;ratioP2
66478;SDS011;53294;47.912;13.526;2022-11-12T00:00:50;4.97;;;2.53;;
66478;SDS011;53294;47.912;13.526;2022-11-12T00:03:17;5.07;;;2.70;;
66478;SDS011;53294;47.912;13.526;2022-11-12T00:05:44;4.78;;;2.92;;
66478;SDS011;53294;47.912;13.526;2022-11-12T00:08:12;4.35;;;2.72;;
66478;SDS011;53294;47.912;13.526;2022-11-12T00:10:38;4.28;;;2.40;;
66478;SDS011;53294;47.912;13.526;2022-11-12T00:13:05;5.25;;;2.50;;
66478;SDS011;53294;47.912;13.526;2022-11-12T00:15:32;3.85;;;2.42;;
66478;SDS011;53294;47.912;13.526;2022-11-12T00:17:58;3.95;;;2.40;;
66478;SDS011;53294;47.912;13.526;2022-11-12T00:20:25;3.28;;;2.08;;
66478;SDS011;53294;47.912;13.526;2022-11-12T00:22:52;4.30;;;2.30;;
66478;SDS011;53294;47.912;13.526;2022-11-12T00:25:19;3.78;;;2.00;;
66478;SDS011;53294;47.912;13.526;2022-11-12T00:27:45;2.95;;;1.92;;
66478;SDS011;53294;47.912;13.526;2022-11-12T00:30:12;3.13;;;2.20;;
66478;SDS011;53294;47.912;13.526;2022-11-12T00:32:39;3.22;;;2.15;;
66478;SDS011;53294;47.912;13.526;2022-11-12T00:35:06;3.50;;;1.98;;
66478;SDS011;53294;47.912;13.526;2022-11-12T00:40:05;3.88;;;2.33;;
66478;SDS011;53294;47.912;13.526;2022-11-12T00:42:32;3.78;;;2.42;;
66478;SDS011;53294;47.912;13.526;2022-11-12T00:44:59;3.28;;;2.08;;
66478;SDS011;53294;47.912;13.526;2022-11-12T00:47:26;3.65;;;2.25;;
66478;SDS011;53294;47.912;13.526;2022-11-12T00:49:52;4.28;;;2.60;;
66478;SDS011;53294;47.912;13.526;2022-11-12T00:52:19;5.82;;;2.80;;
66478;SDS011;53294;47.912;13.526;2022-11-12T00:54:45;5.38;;;2.88;;
66478;SDS011;53294;47.912;13.526;2022-11-12T00:57:12;3.92;;;2.63;;
66478;SDS011;53294;47.912;13.526;2022-11-12T00:59:39;4.53;;;2.90;;
66478;SDS011;53294;47.912;13.526;2022-11-12T01:02:05;4.70;;;2.72;;
66478;SDS011;53294;47.912;13.526;2022-11-12T01:04:32;5.15;;;2.53;;
66478;SDS011;53294;47.912;13.526;2022-11-12T01:06:58;3.42;;;2.42;;
66478;SDS011;53294;47.912;13.526;2022-11-12T01:09:25;5.10;;;2.60;;
66478;SDS011;53294;47.912;13.526;2022-11-12T01:11:52;4.53;;;2.90;;
66478;SDS011;53294;47.912;13.526;2022-11-12T01:14:18;4.40;;;2.78;;
66478;SDS011;53294;47.912;13.526;2022-11-12T01:16:45;6.07;;;3.00;;
66478;SDS011;53294;47.912;13.526;2022-11-12T01:19:11;5.43;;;3.17;;
66478;SDS011;53294;47.912;13.526;2022-11-12T01:21:40;4.82;;;2.70;;
66478;SDS011;53294;47.912;13.526;2022-11-12T01:24:08;5.97;;;3.38;;
66478;SDS011;53294;47.912;13.526;2022-11-12T01:26:36;5.47;;;3.47;;
66478;SDS011;53294;47.912;13.526;2022-11-12T01:29:03;5.50;;;2.80;;
66478;SDS011;53294;47.912;13.526;2022-11-12T01:31:31;5.10;;;2.30;;
66478;SDS011;53294;47.912;13.526;2022-11-12T01:34:01;3.67;;;2.28;;
66478;SDS011;53294;47.912;13.526;2022-11-12T01:36:34;4.75;;;2.70;;
66478;SDS011;53294;47.912;13.526;2022-11-12T01:39:04;5.97;;;2.30;;
66478;SDS011;53294;47.912;13.526;2022-11-12T01:41:34;4.40;;;2.47;;
66478;SDS011;53294;47.912;13.526;2022-11-12T01:46:45;3.60;;;2.03;;
66478;SDS011;53294;47.912;13.526;2022-11-12T01:49:25;3.72;;;2.30;;
66478;SDS011;53294;47.912;13.526;2022-11-12T01:52:01;5.47;;;2.45;;
66478;SDS011;53294;47.912;13.526;2022-11-12T01:54:36;3.72;;;2.00;;
66478;SDS011;53294;47.912;13.526;2022-11-12T01:57:03;4.43;;;1.92;;
66478;SDS011;53294;47.912;13.526;2022-11-12T01:59:33;3.55;;;2.22;;
66478;SDS011;53294;47.912;13.526;2022-11-12T02:02:06;3.72;;;2.10;;
66478;SDS011;53294;47.912;13.526;2022-11-12T02:04:33;3.55;;;2.35;;
66478;SDS011;53294;47.912;13.526;2022-11-12T02:07:02;4.75;;;3.00;;
66478;SDS011;53294;47.912;13.526;2022-11-12T02:09:31;4.97;;;2.47;;
66478;SDS011;53294;47.912;13.526;2022-11-12T02:11:58;5.18;;;2.97;;
66478;SDS011;53294;47.912;13.526;2022-11-12T02:14:25;5.10;;;2.60;;
66478;SDS011;53294;47.912;13.526;2022-11-12T02:16:53;6.75;;;2.95;;
66478;SDS011;53294;47.912;13.526;2022-11-12T02:19:19;5.15;;;2.80;;
66478;SDS011;53294;47.912;13.526;2022-11-12T02:21:46;5.18;;;3.08;;
66478;SDS011;53294;47.912;13.526;2022-11-12T02:26:41;5.63;;;2.78;;
66478;SDS011;53294;47.912;13.526;2022-11-12T02:29:11;5.43;;;2.67;;
66478;SDS011;53294;47.912;13.526;2022-11-12T02:31:38;4.15;;;2.47;;
66478;SDS011;53294;47.912;13.526;2022-11-12T02:34:04;3.88;;;2.00;;
66478;SDS011;53294;47.912;13.526;2022-11-12T02:36:31;3.63;;;2.10;;
66478;SDS011;53294;47.912;13.526;2022-11-12T02:38:57;3.30;;;2.00;;
66478;SDS011;53294;47.912;13.526;2022-11-12T02:41:24;4.50;;;2.00;;
66478;SDS011;53294;47.912;13.526;2022-11-12T02:43:51;3.40;;;1.70;;
66478;SDS011;53294;47.912;13.526;2022-11-12T02:46:18;3.50;;;2.03;;
66478;SDS011;53294;47.912;13.526;2022-11-12T02:48:44;2.15;;;1.60;;
66478;SDS011;53294;47.912;13.526;2022-11-12T02:51:11;2.90;;;1.70;;
66478;SDS011;53294;47.912;13.526;2022-11-12T02:53:38;4.10;;;2.10;;
66478;SDS011;53294;47.912;13.526;2022-11-12T02:56:05;3.88;;;1.77;;
66478;SDS011;53294;47.912;13.526;2022-11-12T02:58:32;3.05;;;1.58;;
66478;SDS011;53294;47.912;13.526;2022-11-12T03:00:58;2.70;;;1.67;;
66478;SDS011;53294;47.912;13.526;2022-11-12T03:03:25;3.40;;;2.00;;
66478;SDS011;53294;47.912;13.526;2022-11-12T03:05:58;5.10;;;2.53;;
66478;SDS011;53294;47.912;13.526;2022-11-12T03:08:26;4.75;;;2.45;;
66478;SDS011;53294;47.912;13.526;2022-11-12T03:10:53;5.47;;;2.50;;
66478;SDS011;53294;47.912;13.526;2022-11-12T03:13:20;4.75;;;2.22;;
66478;SDS011;53294;47.912;13.526;2022-11-12T03:15:47;5.45;;;2.08;;
66478;SDS011;53294;47.912;13.526;2022-11-12T03:18:13;3.60;;;1.50;;
66478;SDS011;53294;47.912;13.526;2022-11-12T03:20:40;13.15;;;2.97;;
66478;SDS011;53294;47.912;13.526;2022-11-12T03:23:08;3.58;;;2.20;;
66478;SDS011;53294;47.912;13.526;2022-11-12T03:25:36;4.22;;;2.30;;
66478;SDS011;53294;47.912;13.526;2022-11-12T03:28:04;6.97;;;2.40;;
66478;SDS011;53294;47.912;13.526;2022-11-12T03:30:34;4.40;;;2.38;;
66478;SDS011;53294;47.912;13.526;2022-11-12T03:33:03;5.80;;;2.50;;
66478;SDS011;53294;47.912;13.526;2022-11-12T03:35:31;5.53;;;2.67;;
66478;SDS011;53294;47.912;13.526;2022-11-12T03:37:59;7.88;;;3.35;;
66478;SDS011;53294;47.912;13.526;2022-11-12T03:40:26;4.72;;;2.78;;
66478;SDS011;53294;47.912;13.526;2022-11-12T03:42:53;4.95;;;2.70;;
66478;SDS011;53294;47.912;13.526;2022-11-12T03:45:21;6.43;;;3.20;;
66478;SDS011;53294;47.912;13.526;2022-11-12T03:47:50;5.35;;;3.10;;
66478;SDS011;53294;47.912;13.526;2022-11-12T03:50:19;5.18;;;2.90;;
66478;SDS011;53294;47.912;13.526;2022-11-12T03:52:48;7.57;;;3.80;;
66478;SDS011;53294;47.912;13.526;2022-11-12T03:55:17;6.00;;;3.38;;
66478;SDS011;53294;47.912;13.526;2022-11-12T03:57:48;6.53;;;3.38;;
66478;SDS011;53294;47.912;13.526;2022-11-12T04:00:16;7.70;;;3.47;;
66478;SDS011;53294;47.912;13.526;2022-11-12T04:02:44;7.30;;;4.20;;
66478;SDS011;53294;47.912;13.526;2022-11-12T04:05:10;6.35;;;3.90;;
66478;SDS011;53294;47.912;13.526;2022-11-12T04:07:59;6.25;;;3.92;;
66478;SDS011;53294;47.912;13.526;2022-11-12T04:10:45;6.13;;;3.78;;
66478;SDS011;53294;47.912;13.526;2022-11-12T04:13:13;7.60;;;3.88;;
66478;SDS011;53294;47.912;13.526;2022-11-12T04:15:55;6.97;;;4.22;;
66478;SDS011;53294;47.912;13.526;2022-11-12T04:18:40;6.20;;;3.33;;
66478;SDS011;53294;47.912;13.526;2022-11-12T04:21:36;5.43;;;3.60;;
66478;SDS011;53294;47.912;13.526;2022-11-12T04:27:31;5.88;;;3.80;;
66478;SDS011;53294;47.912;13.526;2022-11-12T04:29:59;5.85;;;3.50;;
66478;SDS011;53294;47.912;13.526;2022-11-12T04:32:46;6.03;;;3.25;;
66478;SDS011;53294;47.912;13.526;2022-11-12T04:35:15;4.95;;;3.10;;
66478;SDS011;53294;47.912;13.526;2022-11-12T04:37:43;5.30;;;3.17;;
66478;SDS011;53294;47.912;13.526;2022-11-12T04:40:11;7.00;;;3.92;;
66478;SDS011;53294;47.912;13.526;2022-11-12T04:43:04;6.28;;;3.72;;
66478;SDS011;53294;47.912;13.526;2022-11-12T04:45:51;8.27;;;3.85;;
66478;SDS011;53294;47.912;13.526;2022-11-12T04:48:19;7.60;;;3.40;;
66478;SDS011;53294;47.912;13.526;2022-11-12T04:50:48;6.63;;;3.83;;
66478;SDS011;53294;47.912;13.526;2022-11-12T04:53:18;7.35;;;3.70;;
66478;SDS011;53294;47.912;13.526;2022-11-12T04:55:48;6.25;;;3.90;;
66478;SDS011;53294;47.912;13.526;2022-11-12T04:58:16;5.82;;;3.20;;
66478;SDS011;53294;47.912;13.526;2022-11-12T05:00:43;4.95;;;3.10;;
66478;SDS011;53294;47.912;13.526;2022-11-12T05:03:10;5.45;;;3.30;;
66478;SDS011;53294;47.912;13.526;2022-11-12T05:05:36;5.03;;;2.80;;
66478;SDS011;53294;47.912;13.526;2022-11-12T05:08:03;5.32;;;3.00;;
66478;SDS011;53294;47.912;13.526;2022-11-12T05:10:30;4.70;;;2.30;;
66478;SDS011;53294;47.912;13.526;2022-11-12T05:12:57;4.63;;;2.47;;
66478;SDS011;53294;47.912;13.526;2022-11-12T05:15:23;5.00;;;2.47;;
66478;SDS011;53294;47.912;13.526;2022-11-12T05:17:50;4.53;;;2.53;;
66478;SDS011;53294;47.912;13.526;2022-11-12T05:20:17;4.40;;;2.50;;
66478;SDS011;53294;47.912;13.526;2022-11-12T05:22:44;4.45;;;2.50;;
66478;SDS011;53294;47.912;13.526;2022-11-12T05:25:31;5.20;;;2.53;;
66478;SDS011;53294;47.912;13.526;2022-11-12T05:27:57;3.85;;;2.00;;
66478;SDS011;53294;47.912;13.526;2022-11-12T05:30:24;3.53;;;2.10;;
66478;SDS011;53294;47.912;13.526;2022-11-12T05:32:51;3.35;;;2.05;;
66478;SDS011;53294;47.912;13.526;2022-11-12T05:35:17;2.65;;;1.80;;
66478;SDS011;53294;47.912;13.526;2022-11-12T05:37:44;2.10;;;1.83;;
66478;SDS011;53294;47.912;13.526;2022-11-12T05:40:11;2.53;;;1.70;;
66478;SDS011;53294;47.912;13.526;2022-11-12T05:42:37;2.30;;;1.52;;
66478;SDS011;53294;47.912;13.526;2022-11-12T05:45:04;3.63;;;1.70;;
66478;SDS011;53294;47.912;13.526;2022-11-12T05:47:31;3.15;;;1.45;;
66478;SDS011;53294;47.912;13.526;2022-11-12T05:49:58;2.67;;;1.67;;
66478;SDS011;53294;47.912;13.526;2022-11-12T05:52:25;3.85;;;1.65;;
66478;SDS011;53294;47.912;13.526;2022-11-12T05:54:51;2.95;;;1.83;;
66478;SDS011;53294;47.912;13.526;2022-11-12T05:57:18;3.40;;;2.05;;
66478;SDS011;53294;47.912;13.526;2022-11-12T05:59:44;3.63;;;1.63;;
66478;SDS011;53294;47.912;13.526;2022-11-12T06:02:11;5.05;;;1.90;;
66478;SDS011;53294;47.912;13.526;2022-11-12T06:04:38;2.63;;;1.83;;
66478;SDS011;53294;47.912;13.526;2022-11-12T06:07:04;2.67;;;1.83;;
66478;SDS011;53294;47.912;13.526;2022-11-12T06:09:31;3.22;;;1.85;;
66478;SDS011;53294;47.912;13.526;2022-11-12T06:11:57;3.17;;;2.00;;
66478;SDS011;53294;47.912;13.526;2022-11-12T06:14:24;3.83;;;2.60;;
66478;SDS011;53294;47.912;13.526;2022-11-12T06:16:51;4.03;;;2.40;;
66478;SDS011;53294;47.912;13.526;2022-11-12T06:19:17;3.88;;;2.33;;
66478;SDS011;53294;47.912;13.526;2022-11-12T06:21:44;3.38;;;1.95;;
66478;SDS011;53294;47.912;13.526;2022-11-12T06:24:11;3.33;;;1.98;;
66478;SDS011;53294;47.912;13.526;2022-11-12T06:26:37;2.25;;;1.70;;
66478;SDS011;53294;47.912;13.526;2022-11-12T06:29:04;3.70;;;1.80;;
66478;SDS011;53294;47.912;13.526;2022-11-12T06:31:30;3.47;;;1.55;;
66478;SDS011;53294;47.912;13.526;2022-11-12T06:33:57;2.17;;;1.70;;
66478;SDS011;53294;47.912;13.526;2022-11-12T06:36:24;2.22;;;1.65;;
66478;SDS011;53294;47.912;13.526;2022-11-12T06:38:50;3.40;;;1.52;;
66478;SDS011;53294;47.912;13.526;2022-11-12T06:41:17;4.45;;;1.70;;
66478;SDS011;53294;47.912;13.526;2022-11-12T06:43:43;2.10;;;1.40;;
66478;SDS011;53294;47.912;13.526;2022-11-12T06:46:11;2.83;;;1.90;;
66478;SDS011;53294;47.912;13.526;2022-11-12T06:48:40;2.90;;;2.00;;
66478;SDS011;53294;47.912;13.526;2022-11-12T06:51:11;3.97;;;2.25;;
66478;SDS011;53294;47.912;13.526;2022-11-12T06:53:42;4.22;;;2.53;;
66478;SDS011;53294;47.912;13.526;2022-11-12T06:56:10;4.63;;;2.42;;
66478;SDS011;53294;47.912;13.526;2022-11-12T06:58:37;4.75;;;2.60;;
66478;SDS011;53294;47.912;13.526;2022-11-12T07:01:10;3.28;;;1.90;;
66478;SDS011;53294;47.912;13.526;2022-11-12T07:03:41;3.33;;;2.10;;
66478;SDS011;53294;47.912;13.526;2022-11-12T07:06:13;3.38;;;2.08;;
66478;SDS011;53294;47.912;13.526;2022-11-12T07:08:45;3.97;;;2.00;;
66478;SDS011;53294;47.912;13.526;2022-11-12T07:11:12;3.05;;;2.05;;
66478;SDS011;53294;47.912;13.526;2022-11-12T07:13:39;4.43;;;2.05;;
66478;SDS011;53294;47.912;13.526;2022-11-12T07:16:06;3.78;;;2.00;;
66478;SDS011;53294;47.912;13.526;2022-11-12T07:18:33;3.60;;;2.45;;
66478;SDS011;53294;47.912;13.526;2022-11-12T07:21:01;6.15;;;2.83;;
66478;SDS011;53294;47.912;13.526;2022-11-12T07:23:32;4.25;;;2.17;;
66478;SDS011;53294;47.912;13.526;2022-11-12T07:28:28;3.50;;;2.08;;
66478;SDS011;53294;47.912;13.526;2022-11-12T07:33:23;3.53;;;2.15;;
66478;SDS011;53294;47.912;13.526;2022-11-12T07:41:12;4.47;;;2.05;;
66478;SDS011;53294;47.912;13.526;2022-11-12T07:43:40;9.10;;;2.42;;
66478;SDS011;53294;47.912;13.526;2022-11-12T07:46:13;3.60;;;2.10;;
66478;SDS011;53294;47.912;13.526;2022-11-12T07:48:44;3.13;;;2.00;;
66478;SDS011;53294;47.912;13.526;2022-11-12T07:51:12;3.40;;;2.10;;
66478;SDS011;53294;47.912;13.526;2022-11-12T07:53:41;3.72;;;2.22;;
66478;SDS011;53294;47.912;13.526;2022-11-12T07:56:10;3.95;;;2.30;;
66478;SDS011;53294;47.912;13.526;2022-11-12T07:58:47;4.22;;;2.33;;
66478;SDS011;53294;47.912;13.526;2022-11-12T08:03:48;4.05;;;2.13;;
66478;SDS011;53294;47.912;13.526;2022-11-12T08:06:15;3.72;;;2.20;;
66478;SDS011;53294;47.912;13.526;2022-11-12T08:08:41;6.28;;;4.88;;
66478;SDS011;53294;47.912;13.526;2022-11-12T08:11:08;6.10;;;4.90;;
66478;SDS011;53294;47.912;13.526;2022-11-12T08:13:35;6.70;;;4.68;;
66478;SDS011;53294;47.912;13.526;2022-11-12T08:16:01;6.13;;;3.20;;
66478;SDS011;53294;47.912;13.526;2022-11-12T08:18:28;4.63;;;2.80;;
66478;SDS011;53294;47.912;13.526;2022-11-12T08:21:00;6.65;;;3.08;;
66478;SDS011;53294;47.912;13.526;2022-11-12T08:23:28;15.88;;;9.43;;
66478;SDS011;53294;47.912;13.526;2022-11-12T08:25:58;13.23;;;7.57;;
66478;SDS011;53294;47.912;13.526;2022-11-12T08:28:29;13.20;;;7.43;;
66478;SDS011;53294;47.912;13.526;2022-11-12T08:30:56;11.50;;;6.43;;
66478;SDS011;53294;47.912;13.526;2022-11-12T08:33:28;12.63;;;7.38;;
66478;SDS011;53294;47.912;13.526;2022-11-12T08:35:55;10.48;;;7.28;;
66478;SDS011;53294;47.912;13.526;2022-11-12T08:38:22;11.90;;;7.38;;
66478;SDS011;53294;47.912;13.526;2022-11-12T08:40:48;7.07;;;4.47;;
66478;SDS011;53294;47.912;13.526;2022-11-12T08:43:15;6.57;;;4.28;;
66478;SDS011;53294;47.912;13.526;2022-11-12T08:45:42;6.00;;;3.63;;
66478;SDS011;53294;47.912;13.526;2022-11-12T08:48:11;4.68;;;3.03;;
66478;SDS011;53294;47.912;13.526;2022-11-12T08:50:39;5.10;;;3.20;;
66478;SDS011;53294;47.912;13.526;2022-11-12T08:53:07;5.00;;;2.90;;
66478;SDS011;53294;47.912;13.526;2022-11-12T08:55:36;4.93;;;2.95;;
66478;SDS011;53294;47.912;13.526;2022-11-12T08:58:02;4.85;;;3.05;;
66478;SDS011;53294;47.912;13.526;2022-11-12T09:00:31;5.88;;;2.92;;
66478;SDS011;53294;47.912;13.526;2022-11-12T09:02:59;4.80;;;2.70;;
66478;SDS011;53294;47.912;13.526;2022-11-12T09:05:30;4.38;;;2.65;;
66478;SDS011;53294;47.912;13.526;2022-11-12T09:07:58;4.03;;;2.70;;
66478;SDS011;53294;47.912;13.526;2022-11-12T09:10:26;5.03;;;2.40;;
66478;SDS011;53294;47.912;13.526;2022-11-12T09:12:53;4.25;;;2.60;;
66478;SDS011;53294;47.912;13.526;2022-11-12T09:15:21;4.40;;;2.60;;
66478;SDS011;53294;47.912;13.526;2022-11-12T09:18:05;3.95;;;2.78;;
66478;SDS011;53294;47.912;13.526;2022-11-12T09:20:33;3.80;;;2.55;;
66478;SDS011;53294;47.912;13.526;2022-11-12T09:23:05;4.15;;;2.50;;
66478;SDS011;53294;47.912;13.526;2022-11-12T09:25:41;5.45;;;2.80;;
66478;SDS011;53294;47.912;13.526;2022-11-12T09:28:12;3.55;;;2.53;;
66478;SDS011;53294;47.912;13.526;2022-11-12T09:30:41;5.38;;;2.70;;
66478;SDS011;53294;47.912;13.526;2022-11-12T09:33:16;3.90;;;2.38;;
66478;SDS011;53294;47.912;13.526;2022-11-12T09:35:44;4.03;;;2.63;;
66478;SDS011;53294;47.912;13.526;2022-11-12T09:38:12;5.35;;;2.60;;
66478;SDS011;53294;47.912;13.526;2022-11-12T09:43:23;4.32;;;2.80;;
66478;SDS011;53294;47.912;13.526;2022-11-12T09:45:53;4.00;;;2.80;;
66478;SDS011;53294;47.912;13.526;2022-11-12T09:48:46;4.03;;;2.28;;
66478;SDS011;53294;47.912;13.526;2022-11-12T09:53:58;4.28;;;2.78;;
66478;SDS011;53294;47.912;13.526;2022-11-12T09:56:29;3.53;;;2.40;;
66478;SDS011;53294;47.912;13.526;2022-11-12T09:58:56;4.10;;;2.80;;
66478;SDS011;53294;47.912;13.526;2022-11-12T10:01:30;4.95;;;2.70;;
66478;SDS011;53294;47.912;13.526;2022-11-12T10:06:58;4.70;;;2.70;;
66478;SDS011;53294;47.912;13.526;2022-11-12T10:09:32;3.33;;;2.22;;
66478;SDS011;53294;47.912;13.526;2022-11-12T10:17:49;4.35;;;2.50;;
66478;SDS011;53294;47.912;13.526;2022-11-12T10:20:24;3.65;;;2.38;;
66478;SDS011;53294;47.912;13.526;2022-11-12T10:25:42;4.95;;;2.83;;
66478;SDS011;53294;47.912;13.526;2022-11-12T10:31:10;5.00;;;2.40;;
66478;SDS011;53294;47.912;13.526;2022-11-12T10:33:38;3.42;;;2.05;;
66478;SDS011;53294;47.912;13.526;2022-11-12T10:36:15;3.63;;;2.53;;
66478;SDS011;53294;47.912;13.526;2022-11-12T10:38:43;4.15;;;2.28;;
66478;SDS011;53294;47.912;13.526;2022-11-12T10:41:27;3.78;;;2.38;;
66478;SDS011;53294;47.912;13.526;2022-11-12T10:43:57;5.03;;;3.00;;
66478;SDS011;53294;47.912;13.526;2022-11-12T10:46:29;3.92;;;2.20;;
66478;SDS011;53294;47.912;13.526;2022-11-12T10:49:02;2.85;;;2.00;;
66478;SDS011;53294;47.912;13.526;2022-11-12T10:51:33;3.80;;;2.20;;
66478;SDS011;53294;47.912;13.526;2022-11-12T10:54:24;4.07;;;2.28;;
66478;SDS011;53294;47.912;13.526;2022-11-12T10:57:17;7.15;;;3.97;;
66478;SDS011;53294;47.912;13.526;2022-11-12T11:02:45;3.85;;;2.30;;
66478;SDS011;53294;47.912;13.526;2022-11-12T11:05:34;2.95;;;2.03;;
66478;SDS011;53294;47.912;13.526;2022-11-12T11:08:02;3.60;;;2.28;;
66478;SDS011;53294;47.912;13.526;2022-11-12T11:10:32;6.68;;;4.13;;
66478;SDS011;53294;47.912;13.526;2022-11-12T11:13:15;6.30;;;3.20;;
66478;SDS011;53294;47.912;13.526;2022-11-12T11:16:03;3.67;;;2.03;;
66478;SDS011;53294;47.912;13.526;2022-11-12T11:18:32;1.95;;;1.50;;
66478;SDS011;53294;47.912;13.526;2022-11-12T11:23:55;2.78;;;1.40;;
66478;SDS011;53294;47.912;13.526;2022-11-12T11:30:02;3.70;;;1.88;;
66478;SDS011;53294;47.912;13.526;2022-11-12T11:49:28;2.97;;;1.58;;
66478;SDS011;53294;47.912;13.526;2022-11-12T11:52:01;2.50;;;1.60;;
66478;SDS011;53294;47.912;13.526;2022-11-12T11:57:21;3.03;;;1.60;;
66478;SDS011;53294;47.912;13.526;2022-11-12T12:14:12;2.20;;;1.52;;
66478;SDS011;53294;47.912;13.526;2022-11-12T12:19:48;3.72;;;1.70;;
66478;SDS011;53294;47.912;13.526;2022-11-12T12:22:21;3.47;;;1.70;;
66478;SDS011;53294;47.912;13.526;2022-11-12T12:24:59;2.75;;;1.67;;
66478;SDS011;53294;47.912;13.526;2022-11-12T12:27:37;3.03;;;1.60;;
66478;SDS011;53294;47.912;13.526;2022-11-12T12:30:20;1.83;;;1.30;;
66478;SDS011;53294;47.912;13.526;2022-11-12T12:33:00;2.95;;;1.50;;
66478;SDS011;53294;47.912;13.526;2022-11-12T12:35:50;2.33;;;1.48;;
66478;SDS011;53294;47.912;13.526;2022-11-12T12:43:45;3.05;;;1.75;;
66478;SDS011;53294;47.912;13.526;2022-11-12T12:46:19;3.60;;;1.67;;
66478;SDS011;53294;47.912;13.526;2022-11-12T12:48:49;2.72;;;1.83;;
66478;SDS011;53294;47.912;13.526;2022-11-12T12:51:19;2.42;;;1.60;;
66478;SDS011;53294;47.912;13.526;2022-11-12T12:53:47;3.08;;;2.15;;
66478;SDS011;53294;47.912;13.526;2022-11-12T13:03:57;4.28;;;2.60;;
66478;SDS011;53294;47.912;13.526;2022-11-12T13:06:25;2.70;;;1.92;;
66478;SDS011;53294;47.912;13.526;2022-11-12T13:09:05;5.25;;;2.60;;
66478;SDS011;53294;47.912;13.526;2022-11-12T13:11:50;4.18;;;2.40;;
66478;SDS011;53294;47.912;13.526;2022-11-12T13:33:16;3.90;;;2.60;;
66478;SDS011;53294;47.912;13.526;2022-11-12T13:35:37;4.35;;;2.60;;
66478;SDS011;53294;47.912;13.526;2022-11-12T13:43:29;3.75;;;2.55;;
66478;SDS011;53294;47.912;13.526;2022-11-12T13:48:39;5.93;;;2.50;;
66478;SDS011;53294;47.912;13.526;2022-11-12T13:53:55;7.63;;;4.50;;
66478;SDS011;53294;47.912;13.526;2022-11-12T13:56:32;6.35;;;4.30;;
66478;SDS011;53294;47.912;13.526;2022-11-12T13:59:13;7.03;;;4.00;;
66478;SDS011;53294;47.912;13.526;2022-11-12T14:01:41;6.90;;;3.85;;
66478;SDS011;53294;47.912;13.526;2022-11-12T14:04:19;6.57;;;3.50;;
66478;SDS011;53294;47.912;13.526;2022-11-12T14:06:52;5.43;;;2.78;;
66478;SDS011;53294;47.912;13.526;2022-11-12T14:18:19;4.72;;;2.75;;
66478;SDS011;53294;47.912;13.526;2022-11-12T14:20:48;4.47;;;2.58;;
66478;SDS011;53294;47.912;13.526;2022-11-12T14:23:16;5.30;;;2.80;;
66478;SDS011;53294;47.912;13.526;2022-11-12T14:25:51;3.88;;;2.60;;
66478;SDS011;53294;47.912;13.526;2022-11-12T14:30:48;4.60;;;3.00;;
66478;SDS011;53294;47.912;13.526;2022-11-12T14:33:18;5.68;;;2.95;;
66478;SDS011;53294;47.912;13.526;2022-11-12T14:35:47;3.75;;;2.53;;
66478;SDS011;53294;47.912;13.526;2022-11-12T14:38:26;3.58;;;2.70;;
66478;SDS011;53294;47.912;13.526;2022-11-12T14:40:56;5.38;;;2.75;;
66478;SDS011;53294;47.912;13.526;2022-11-12T14:46:02;7.90;;;2.97;;
66478;SDS011;53294;47.912;13.526;2022-11-12T14:48:32;4.65;;;3.05;;
66478;SDS011;53294;47.912;13.526;2022-11-12T14:51:04;4.70;;;3.10;;
66478;SDS011;53294;47.912;13.526;2022-11-12T14:53:46;4.85;;;3.13;;
66478;SDS011;53294;47.912;13.526;2022-11-12T14:59:01;5.05;;;3.15;;
66478;SDS011;53294;47.912;13.526;2022-11-12T15:01:29;4.05;;;3.00;;
66478;SDS011;53294;47.912;13.526;2022-11-12T15:04:19;5.55;;;3.08;;
66478;SDS011;53294;47.912;13.526;2022-11-12T15:06:53;5.20;;;3.30;;
66478;SDS011;53294;47.912;13.526;2022-11-12T15:09:31;4.70;;;3.10;;
66478;SDS011;53294;47.912;13.526;2022-11-12T15:12:00;5.10;;;3.30;;
66478;SDS011;53294;47.912;13.526;2022-11-12T15:14:29;5.45;;;3.10;;
66478;SDS011;53294;47.912;13.526;2022-11-12T15:16:56;6.00;;;4.15;;
66478;SDS011;53294;47.912;13.526;2022-11-12T15:19:26;5.88;;;3.90;;
66478;SDS011;53294;47.912;13.526;2022-11-12T15:21:55;5.38;;;3.55;;
66478;SDS011;53294;47.912;13.526;2022-11-12T15:24:25;6.65;;;3.90;;
66478;SDS011;53294;47.912;13.526;2022-11-12T15:26:55;6.18;;;4.20;;
66478;SDS011;53294;47.912;13.526;2022-11-12T15:34:49;7.20;;;4.40;;
66478;SDS011;53294;47.912;13.526;2022-11-12T15:39:47;6.97;;;4.20;;
66478;SDS011;53294;47.912;13.526;2022-11-12T15:45:12;5.85;;;3.58;;
66478;SDS011;53294;47.912;13.526;2022-11-12T15:47:46;5.55;;;3.55;;
66478;SDS011;53294;47.912;13.526;2022-11-12T15:50:18;5.43;;;3.35;;
66478;SDS011;53294;47.912;13.526;2022-11-12T15:55:13;6.65;;;3.30;;
66478;SDS011;53294;47.912;13.526;2022-11-12T15:57:43;5.60;;;3.47;;
66478;SDS011;53294;47.912;13.526;2022-11-12T16:00:16;19.85;;;14.05;;
66478;SDS011;53294;47.912;13.526;2022-11-12T16:02:49;18.70;;;12.83;;
66478;SDS011;53294;47.912;13.526;2022-11-12T16:05:20;20.00;;;14.88;;
66478;SDS011;53294;47.912;13.526;2022-11-12T16:07:47;14.45;;;12.00;;
66478;SDS011;53294;47.912;13.526;2022-11-12T16:10:14;8.27;;;4.80;;
66478;SDS011;53294;47.912;13.526;2022-11-12T16:12:43;7.13;;;3.85;;
66478;SDS011;53294;47.912;13.526;2022-11-12T16:15:13;6.32;;;3.90;;
66478;SDS011;53294;47.912;13.526;2022-11-12T16:17:40;7.15;;;4.82;;
66478;SDS011;53294;47.912;13.526;2022-11-12T16:20:19;9.23;;;6.90;;
66478;SDS011;53294;47.912;13.526;2022-11-12T16:22:50;8.52;;;6.10;;
66478;SDS011;53294;47.912;13.526;2022-11-12T16:25:18;9.23;;;6.57;;
66478;SDS011;53294;47.912;13.526;2022-11-12T16:27:45;9.60;;;6.60;;
66478;SDS011;53294;47.912;13.526;2022-11-12T16:30:21;8.55;;;6.30;;
66478;SDS011;53294;47.912;13.526;2022-11-12T16:32:50;8.82;;;6.82;;
66478;SDS011;53294;47.912;13.526;2022-11-12T16:35:17;11.68;;;6.88;;
66478;SDS011;53294;47.912;13.526;2022-11-12T16:37:44;8.45;;;5.95;;
66478;SDS011;53294;47.912;13.526;2022-11-12T16:40:16;12.68;;;8.52;;
66478;SDS011;53294;47.912;13.526;2022-11-12T16:42:46;12.23;;;8.98;;
66478;SDS011;53294;47.912;13.526;2022-11-12T16:45:16;11.18;;;8.05;;
66478;SDS011;53294;47.912;13.526;2022-11-12T16:47:45;14.43;;;10.20;;
66478;SDS011;53294;47.912;13.526;2022-11-12T16:50:15;10.43;;;6.53;;
66478;SDS011;53294;47.912;13.526;2022-11-12T16:52:43;8.63;;;6.22;;
66478;SDS011;53294;47.912;13.526;2022-11-12T16:55:10;21.67;;;12.50;;
66478;SDS011;53294;47.912;13.526;2022-11-12T16:57:37;11.85;;;8.45;;
66478;SDS011;53294;47.912;13.526;2022-11-12T17:00:04;11.02;;;7.43;;
66478;SDS011;53294;47.912;13.526;2022-11-12T17:02:31;9.60;;;6.95;;
66478;SDS011;53294;47.912;13.526;2022-11-12T17:05:02;9.07;;;6.72;;
66478;SDS011;53294;47.912;13.526;2022-11-12T17:07:30;19.15;;;9.88;;
66478;SDS011;53294;47.912;13.526;2022-11-12T17:09:57;17.85;;;9.95;;
66478;SDS011;53294;47.912;13.526;2022-11-12T17:12:23;14.90;;;9.25;;
66478;SDS011;53294;47.912;13.526;2022-11-12T17:14:50;14.05;;;7.65;;
66478;SDS011;53294;47.912;13.526;2022-11-12T17:17:17;12.68;;;8.60;;
66478;SDS011;53294;47.912;13.526;2022-11-12T17:19:43;11.88;;;7.47;;
66478;SDS011;53294;47.912;13.526;2022-11-12T17:22:10;11.70;;;7.75;;
66478;SDS011;53294;47.912;13.526;2022-11-12T17:24:37;8.02;;;6.32;;
66478;SDS011;53294;47.912;13.526;2022-11-12T17:27:03;9.52;;;6.68;;
66478;SDS011;53294;47.912;13.526;2022-11-12T17:29:30;8.25;;;6.03;;
66478;SDS011;53294;47.912;13.526;2022-11-12T17:31:56;8.85;;;6.20;;